createdAt,value
2019-04-11T00:02:41.012Z,98089.30
2019-04-11T00:06:45.937Z,98092.14
2019-04-11T00:10:50.827Z,98087.30
2019-04-11T00:14:56.035Z,98091.69
2019-04-11T00:19:01.025Z,98084.91
2019-04-11T00:23:06.184Z,98090.64
2019-04-11T00:27:11.080Z,98081.86
2019-04-11T00:31:16.779Z,98083.66
2019-04-11T00:35:21.722Z,98076.41
2019-04-11T00:39:27.848Z,98082.84
2019-04-11T00:43:37.660Z,98079.00
2019-04-11T00:47:41.512Z,98080.25
2019-04-11T00:51:47.708Z,98080.72
2019-04-11T00:55:53.514Z,98078.58
2019-04-11T00:59:58.560Z,98079.48
2019-04-11T01:04:03.493Z,98084.28
2019-04-11T01:08:09.390Z,98086.00
2019-04-11T01:12:14.667Z,98083.48
2019-04-11T01:16:21.221Z,98084.00
2019-04-11T01:20:27.135Z,98085.78
2019-04-11T01:24:33.652Z,98091.04
2019-04-11T01:28:38.660Z,98094.11
2019-04-11T01:32:43.569Z,98099.72
2019-04-11T01:36:48.476Z,98094.58
2019-04-11T01:40:54.347Z,98096.31
2019-04-11T01:44:59.322Z,98098.94
2019-04-11T01:49:12.265Z,98098.55
2019-04-11T01:53:17.275Z,98093.50
2019-04-11T01:57:22.194Z,98095.70
2019-04-11T02:01:28.732Z,98095.73
2019-04-11T02:05:35.042Z,98101.30
2019-04-11T02:09:40.172Z,98102.16
2019-04-11T02:13:45.012Z,98105.57
2019-04-11T02:17:50.917Z,98106.00
2019-04-11T02:21:57.953Z,98109.92
2019-04-11T02:26:11.407Z,98112.98
2019-04-11T02:30:18.915Z,98118.22
2019-04-11T02:34:23.503Z,98115.59
2019-04-11T02:38:29.169Z,98118.25
2019-04-11T02:42:35.815Z,98124.32
2019-04-11T02:46:48.334Z,98123.09
2019-04-11T02:50:47.983Z,98121.45
2019-04-11T02:54:54.522Z,98134.83
2019-04-11T02:59:02.092Z,98139.63
2019-04-11T03:03:08.430Z,98137.50
2019-04-11T03:07:14.616Z,98136.64
2019-04-11T03:11:21.861Z,98141.78
2019-04-11T03:15:42.030Z,98150.88
2019-04-11T03:19:43.858Z,98154.75
2019-04-11T03:23:41.626Z,98164.24
2019-04-11T03:27:47.466Z,98162.09
2019-04-11T03:36:51.148Z,98177.63
2019-04-11T03:40:29.120Z,98172.94
2019-04-11T03:44:21.239Z,98181.52
2019-04-11T03:48:33.230Z,98178.52
2019-04-11T03:52:28.267Z,98184.99
2019-04-11T03:56:35.043Z,98188.44
2019-04-11T04:00:43.903Z,98200.93
2019-04-11T04:04:49.171Z,98203.52
2019-04-11T04:08:55.599Z,98215.14
2019-04-11T04:13:02.430Z,98219.03
2019-04-11T04:17:11.111Z,98216.45
2019-04-11T04:21:24.735Z,98222.05
2019-04-11T04:25:29.946Z,98230.68
2019-04-11T04:29:37.268Z,98229.38
2019-04-11T04:33:42.833Z,98237.11
2019-04-11T04:37:49.818Z,98242.70
2019-04-11T04:42:05.943Z,98247.87
2019-04-11T04:46:20.547Z,98243.99
2019-04-11T04:50:11.042Z,98251.73
2019-04-11T04:54:16.422Z,98257.33
2019-04-11T04:58:22.292Z,98266.77
2019-04-11T05:02:28.700Z,98267.62
2019-04-11T05:06:34.666Z,98275.36
2019-04-11T05:10:40.323Z,98271.47
2019-04-11T05:14:45.621Z,98280.51
2019-04-11T05:18:50.707Z,98278.36
2019-04-11T05:22:55.914Z,98283.06
2019-04-11T05:27:00.916Z,98284.33
2019-04-11T05:31:06.064Z,98285.61
2019-04-11T05:35:11.171Z,98290.80
2019-04-11T05:39:18.423Z,98292.57
2019-04-11T05:43:27.963Z,98296.45
2019-04-11T05:47:29.714Z,98302.05
2019-04-11T05:51:40.026Z,98301.16
2019-04-11T05:55:45.137Z,98298.99
2019-04-11T05:59:49.939Z,98311.48
2019-04-11T06:03:57.366Z,98313.16
2019-04-11T06:08:06.090Z,98310.14
2019-04-11T06:12:15.555Z,98299.42
2019-04-11T06:16:20.813Z,98300.64
2019-04-11T06:20:31.124Z,98298.98
2019-04-11T06:24:44.669Z,98303.81
2019-04-11T06:28:54.013Z,98307.89
2019-04-11T06:33:05.221Z,98315.53
2019-04-11T06:37:14.763Z,98321.96
2019-04-11T06:41:27.054Z,98327.30
2019-04-11T06:45:39.734Z,98326.01
2019-04-11T06:49:49.138Z,98329.48
2019-04-11T06:54:12.710Z,98331.39
2019-04-11T06:58:22.039Z,98331.45
2019-04-11T07:02:28.605Z,98331.87
2019-04-11T07:06:35.688Z,98330.61
2019-04-11T07:10:46.744Z,98341.59
2019-04-11T07:14:53.366Z,98335.66
2019-04-11T07:19:02.953Z,98339.31
2019-04-11T07:23:26.450Z,98337.40
2019-04-11T07:27:32.280Z,98336.67
2019-04-11T07:31:39.737Z,98342.13
2019-04-11T07:36:03.808Z,98354.14
2019-04-11T07:40:13.015Z,98343.11
2019-04-11T07:44:38.605Z,98349.66
2019-04-11T07:48:44.757Z,98346.16
2019-04-11T07:52:56.753Z,98345.70
2019-04-11T07:57:04.059Z,98342.91
2019-04-11T08:01:10.913Z,98340.27
2019-04-11T08:05:21.534Z,98350.45
2019-04-11T08:09:48.079Z,98362.48
2019-04-11T08:14:02.115Z,98342.81
2019-04-11T08:18:08.724Z,98345.05
2019-04-11T08:22:19.036Z,98356.98
2019-04-11T08:26:42.373Z,98361.69
2019-04-11T08:31:05.572Z,98361.83
2019-04-11T08:35:15.866Z,98353.60
2019-04-11T08:39:20.830Z,98353.30
2019-04-11T08:43:31.280Z,98348.89
2019-04-11T08:47:47.094Z,98362.37
2019-04-11T08:51:47.451Z,98357.84
2019-04-11T08:55:57.082Z,98352.94
2019-04-11T09:00:08.224Z,98343.24
2019-04-11T09:04:24.011Z,98364.66
2019-04-11T09:08:34.257Z,98344.92
2019-04-11T09:12:40.904Z,98347.78
2019-04-11T09:17:03.849Z,98345.41
2019-04-11T09:21:28.589Z,98348.69
2019-04-11T09:25:41.224Z,98351.97
2019-04-11T09:30:02.727Z,98358.68
2019-04-11T09:34:11.329Z,98380.42
2019-04-11T09:38:24.342Z,98362.95
2019-04-11T09:42:34.596Z,98367.27
2019-04-11T09:46:50.581Z,98350.78
2019-04-11T09:51:07.339Z,98348.06
2019-04-11T09:55:19.809Z,98349.27
2019-04-11T09:59:42.223Z,98325.53
2019-04-11T10:03:48.682Z,98340.52
2019-04-11T10:08:08.573Z,98361.91
2019-04-11T10:12:31.913Z,98350.06
2019-04-11T10:16:50.655Z,98350.67
2019-04-11T10:20:57.074Z,98358.64
2019-04-11T10:25:12.847Z,98350.67
2019-04-11T10:29:36.328Z,98352.84
2019-04-11T10:33:59.423Z,98352.64
2019-04-11T10:38:06.786Z,98352.28
2019-04-11T10:42:16.050Z,98361.52
2019-04-11T10:46:31.470Z,98356.09
2019-04-11T10:50:38.099Z,98339.89
2019-04-11T10:54:45.060Z,98344.66
2019-04-11T10:58:51.633Z,98344.19
2019-04-11T11:03:06.959Z,98346.63
2019-04-11T11:07:13.126Z,98340.34
2019-04-11T11:11:22.576Z,98345.91
2019-04-11T11:15:29.707Z,98344.55
2019-04-11T11:19:59.436Z,98337.50
2019-04-11T11:24:12.668Z,98349.94
2019-04-11T11:28:19.380Z,98350.76
2019-04-11T11:32:25.293Z,98339.58
2019-04-11T11:36:48.119Z,98342.78
2019-04-11T11:41:09.728Z,98347.02
2019-04-11T11:45:17.309Z,98352.84
2019-04-11T11:49:38.882Z,98359.92
2019-04-11T11:53:49.092Z,98351.80
2019-04-11T11:58:15.822Z,98359.63
2019-04-11T12:02:23.043Z,98359.27
2019-04-11T12:06:29.269Z,98350.70
2019-04-11T12:10:35.846Z,98353.25
2019-04-11T12:14:46.413Z,98360.98
2019-04-11T12:19:10.809Z,98367.01
2019-04-11T12:23:17.517Z,98354.84
2019-04-11T12:27:40.072Z,98353.95
2019-04-11T12:31:46.580Z,98355.50
2019-04-11T12:35:58.711Z,98359.55
2019-04-11T12:40:04.332Z,98353.85
2019-04-11T12:44:22.888Z,98348.97
2019-04-11T12:48:29.424Z,98350.41
2019-04-11T12:52:38.635Z,98359.27
2019-04-11T12:56:48.188Z,98353.81
2019-04-11T13:00:54.726Z,98341.59
2019-04-11T13:04:59.893Z,98364.30
2019-04-11T13:09:27.759Z,98348.13
2019-04-11T13:13:50.605Z,98346.23
2019-04-11T13:17:59.793Z,98340.19
2019-04-11T13:22:06.781Z,98332.58
2019-04-11T13:26:29.288Z,98332.32
2019-04-11T13:30:44.395Z,98326.86
2019-04-11T13:34:50.926Z,98342.89
2019-04-11T13:38:55.816Z,98328.40
2019-04-11T13:43:08.303Z,98325.23
2019-04-11T13:47:14.852Z,98335.08
2019-04-11T13:51:24.491Z,98334.23
2019-04-11T13:55:29.393Z,98322.84
2019-04-11T13:59:35.935Z,98323.28
2019-04-11T14:03:48.265Z,98322.92
2019-04-11T14:07:54.805Z,98319.10
2019-04-11T14:11:59.734Z,98317.23
2019-04-11T14:16:23.956Z,98313.45
2019-04-11T14:20:30.650Z,98299.83
2019-04-11T14:24:41.824Z,98325.64
2019-04-11T14:28:48.353Z,98315.61
2019-04-11T14:32:53.999Z,98318.71
2019-04-11T14:37:01.073Z,98321.68
2019-04-11T14:41:19.539Z,98315.94
2019-04-11T14:45:44.452Z,98317.12
2019-04-11T14:49:50.986Z,98313.35
2019-04-11T14:53:57.529Z,98318.95
2019-04-11T14:58:13.226Z,98317.91
2019-04-11T15:02:37.215Z,98318.36
2019-04-11T15:06:46.173Z,98311.82
2019-04-11T15:10:55.665Z,98311.66
2019-04-11T15:15:19.781Z,98311.66
2019-04-11T15:19:24.806Z,98317.91
2019-04-11T15:23:31.346Z,98307.34
2019-04-11T15:27:56.236Z,98307.64
2019-04-11T15:32:05.719Z,98310.70
2019-04-11T15:36:12.279Z,98311.60
2019-04-11T15:40:17.763Z,98298.97
2019-04-11T15:44:36.336Z,98315.82
2019-04-11T15:48:42.879Z,98301.44
2019-04-11T15:52:49.415Z,98311.81
2019-04-11T15:56:55.953Z,98315.22
2019-04-11T16:01:08.476Z,98307.03
2019-04-11T16:05:31.662Z,98323.02
2019-04-11T16:09:37.178Z,98319.21
2019-04-11T16:13:43.732Z,98321.99
2019-04-11T16:18:02.170Z,98316.18
2019-04-11T16:22:11.614Z,98304.86
2019-04-11T16:26:21.024Z,98304.69
2019-04-11T16:30:27.564Z,98316.32
2019-04-11T16:34:47.890Z,98324.98
2019-04-11T16:38:49.661Z,98314.91
2019-04-11T16:42:56.237Z,98321.52
2019-04-11T16:47:19.155Z,98324.71
2019-04-11T16:51:30.793Z,98321.41
2019-04-11T16:55:30.661Z,98326.28
2019-04-11T16:59:35.551Z,98327.41
2019-04-11T17:03:40.446Z,98333.19
2019-04-11T17:07:49.894Z,98337.30
2019-04-11T17:11:56.819Z,98336.72
2019-04-11T17:16:02.755Z,98338.75
2019-04-11T17:20:07.903Z,98339.23
2019-04-11T17:24:16.739Z,98340.66
2019-04-11T17:28:22.839Z,98337.50
2019-04-11T17:32:26.971Z,98353.46
2019-04-11T17:36:33.550Z,98348.66
2019-04-11T17:40:39.675Z,98346.73
2019-04-11T17:44:45.015Z,98348.33
2019-04-11T17:48:50.528Z,98348.14
2019-04-11T17:52:55.782Z,98357.90
2019-04-11T17:57:01.634Z,98364.58
2019-04-11T18:01:06.664Z,98362.59
2019-04-11T18:05:11.636Z,98362.87
2019-04-11T18:09:16.522Z,98373.05
2019-04-11T18:13:21.427Z,98382.39
2019-04-11T18:17:26.319Z,98384.33
2019-04-11T18:21:31.218Z,98391.12
2019-04-11T18:25:36.121Z,98386.52
2019-04-11T18:29:41.009Z,98388.88
2019-04-11T18:33:46.044Z,98398.16
2019-04-11T18:37:50.950Z,98407.00
2019-04-11T18:41:57.670Z,98410.65
2019-04-11T18:46:02.623Z,98421.65
2019-04-11T18:50:08.434Z,98428.70
2019-04-11T18:54:13.326Z,98437.16
2019-04-11T18:58:18.221Z,98439.11
2019-04-11T19:02:23.647Z,98441.92
2019-04-11T19:06:28.631Z,98441.64
2019-04-11T19:10:33.524Z,98445.69
2019-04-11T19:14:38.430Z,98449.30
2019-04-11T19:18:47.165Z,98458.92
2019-04-11T19:22:49.932Z,98463.84
2019-04-11T19:26:54.840Z,98464.36
2019-04-11T19:30:59.733Z,98472.69
2019-04-11T19:35:05.179Z,98468.47
2019-04-11T19:39:13.507Z,98479.41
2019-04-11T19:43:19.070Z,98480.38
2019-04-11T19:47:23.447Z,98477.88
2019-04-11T19:51:28.976Z,98492.26
2019-04-11T19:55:36.076Z,98484.52
2019-04-11T19:59:40.965Z,98492.83
2019-04-11T20:03:45.842Z,98488.59
2019-04-11T20:07:50.754Z,98488.20
2019-04-11T20:11:57.887Z,98492.96
2019-04-11T20:16:03.374Z,98495.64
2019-04-11T20:20:08.463Z,98494.82
2019-04-11T20:24:14.527Z,98500.95
2019-04-11T20:28:20.878Z,98498.83
2019-04-11T20:32:25.919Z,98503.22
2019-04-11T20:36:33.602Z,98498.97
2019-04-11T20:40:37.423Z,98503.33
2019-04-11T20:44:42.321Z,98502.95
2019-04-11T20:48:47.210Z,98509.03
2019-04-11T20:52:52.110Z,98507.34
2019-04-11T20:56:57.009Z,98511.22
2019-04-11T21:01:01.910Z,98509.98
2019-04-11T21:05:06.805Z,98510.06
2019-04-11T21:09:12.462Z,98504.92
2019-04-11T21:13:17.347Z,98503.66
2019-04-11T21:17:22.238Z,98511.02
2019-04-11T21:21:27.224Z,98515.41
2019-04-11T21:25:32.107Z,98508.95
2019-04-11T21:29:37.069Z,98512.91
2019-04-11T21:33:41.891Z,98513.77
2019-04-11T21:37:47.228Z,98521.98
2019-04-11T21:41:52.130Z,98529.75
2019-04-11T21:45:57.014Z,98527.18
2019-04-11T21:50:01.908Z,98528.03
2019-04-11T21:54:06.809Z,98525.06
2019-04-11T21:58:11.703Z,98534.55
2019-04-11T22:02:16.738Z,98530.21
2019-04-11T22:06:21.637Z,98531.52
2019-04-11T22:10:26.792Z,98533.23
2019-04-11T22:14:31.701Z,98535.41
2019-04-11T22:18:36.591Z,98531.95
2019-04-11T22:22:41.508Z,98531.11
2019-04-11T22:26:50.313Z,98526.80
2019-04-11T22:30:55.071Z,98526.80
2019-04-11T22:34:59.887Z,98531.14
2019-04-11T22:39:08.067Z,98538.02
2019-04-11T22:43:24.055Z,98537.16
2019-04-11T22:47:19.552Z,98531.11
2019-04-11T22:51:24.734Z,98536.23
2019-04-11T22:55:29.633Z,98540.11
2019-04-11T22:59:34.545Z,98537.52
2019-04-11T23:03:41.085Z,98536.64
2019-04-11T23:07:48.471Z,98537.11
2019-04-11T23:11:52.559Z,98546.14
2019-04-11T23:15:57.626Z,98540.53
2019-04-11T23:20:02.526Z,98546.97
2019-04-11T23:24:12.113Z,98545.24
2019-04-11T23:28:15.848Z,98548.23
2019-04-11T23:32:21.232Z,98547.81
2019-04-11T23:36:26.783Z,98552.48
2019-04-11T23:40:31.676Z,98551.99
2019-04-11T23:44:37.646Z,98550.70
2019-04-11T23:48:42.522Z,98554.15
2019-04-11T23:52:47.419Z,98545.96
2019-04-11T23:56:52.310Z,98549.38
